createdAt,value
2023-03-10T00:01:47.513Z,98641.48
2023-03-10T00:04:19.180Z,98643.11
2023-03-10T00:07:10.199Z,98639.55
2023-03-10T00:10:17.223Z,98634.73
2023-03-10T00:12:53.633Z,98637.13
2023-03-10T00:15:26.748Z,98626.52
2023-03-10T00:18:01.221Z,98622.19
2023-03-10T00:20:32.273Z,98625.77
2023-03-10T00:23:04.485Z,98620.36
2023-03-10T00:25:36.522Z,98620.36
2023-03-10T00:28:07.208Z,98616.46
2023-03-10T00:30:37.425Z,98607.31
2023-03-10T00:33:09.974Z,98600.82
2023-03-10T00:36:47.814Z,98591.48
2023-03-10T00:52:34.121Z,98560.64
2023-03-10T00:55:26.609Z,98553.38
2023-03-10T00:57:59.173Z,98549.41
2023-03-10T01:00:51.827Z,98548.91
2023-03-10T01:03:43.952Z,98546.89
2023-03-10T01:06:23.103Z,98545.79
2023-03-10T01:09:15.070Z,98543.57
2023-03-10T01:11:48.958Z,98544.26
2023-03-10T01:14:40.131Z,98542.08
2023-03-10T01:17:15.584Z,98546.54
2023-03-10T01:19:45.035Z,98545.23
2023-03-10T01:22:15.305Z,98546.27
2023-03-10T01:24:45.842Z,98543.73
2023-03-10T01:27:18.233Z,98534.30
2023-03-10T01:29:51.601Z,98524.86
2023-03-10T01:33:06.520Z,98527.65
2023-03-10T01:40:27.772Z,98509.79
2023-03-10T01:43:26.121Z,98500.89
2023-03-10T01:46:38.704Z,98503.13
2023-03-10T01:49:47.079Z,98494.66
2023-03-10T01:53:12.877Z,98484.42
2023-03-10T01:55:52.829Z,98473.27
2023-03-10T01:58:49.835Z,98473.81
2023-03-10T02:02:35.905Z,98472.79
2023-03-10T02:05:58.049Z,98459.21
2023-03-10T02:08:34.967Z,98448.65
2023-03-10T02:11:11.672Z,98434.95
2023-03-10T02:19:55.857Z,98425.61
2023-03-10T02:23:05.708Z,98425.02
2023-03-10T02:26:40.841Z,98420.42
2023-03-10T02:30:28.807Z,98412.91
2023-03-10T02:33:06.131Z,98414.30
2023-03-10T02:36:35.616Z,98418.63
2023-03-10T02:39:47.438Z,98412.70
2023-03-10T02:58:50.141Z,98356.91
2023-03-10T03:05:06.462Z,98351.29
2023-03-10T03:19:33.170Z,98335.06
2023-03-10T03:23:13.682Z,98320.70
2023-03-10T03:29:57.195Z,98303.35
2023-03-10T03:32:31.223Z,98306.40
2023-03-10T03:35:22.133Z,98306.32
2023-03-10T03:38:00.103Z,98298.75
2023-03-10T03:40:53.941Z,98288.58
2023-03-10T03:43:44.665Z,98296.05
2023-03-10T03:46:21.054Z,98298.12
2023-03-10T03:49:02.669Z,98289.92
2023-03-10T03:52:38.456Z,98278.41
2023-03-10T03:56:45.434Z,98266.91
2023-03-10T04:09:43.046Z,98237.90
2023-03-10T04:16:04.888Z,98227.33
2023-03-10T04:19:36.048Z,98224.27
2023-03-10T04:26:52.713Z,98205.15
2023-03-10T04:29:25.240Z,98199.59
2023-03-10T04:32:05.336Z,98195.96
2023-03-10T04:34:38.642Z,98190.14
2023-03-10T04:37:10.815Z,98184.02
2023-03-10T04:39:41.167Z,98178.73
2023-03-10T04:42:14.599Z,98174.00
2023-03-10T04:44:47.447Z,98170.02
2023-03-10T04:47:18.205Z,98170.61
2023-03-10T04:49:50.897Z,98167.67
2023-03-10T04:52:50.346Z,98170.27
2023-03-10T04:55:22.173Z,98167.01
2023-03-10T04:57:54.665Z,98165.04
2023-03-10T05:00:29.756Z,98158.72
2023-03-10T05:06:57.848Z,98134.52
2023-03-10T05:13:43.347Z,98123.19
2023-03-10T05:16:34.296Z,98099.36
2023-03-10T05:19:08.649Z,98101.79
2023-03-10T05:21:40.230Z,98096.13
2023-03-10T05:24:12.866Z,98092.73
2023-03-10T05:26:42.800Z,98089.08
2023-03-10T05:29:13.084Z,98080.33
2023-03-10T05:31:48.802Z,98084.40
2023-03-10T05:34:24.105Z,98079.90
2023-03-10T05:36:54.923Z,98073.69
2023-03-10T05:39:26.359Z,98069.22
2023-03-10T05:41:58.681Z,98056.55
2023-03-10T05:44:36.109Z,98049.27
2023-03-10T05:47:30.041Z,98052.59
2023-03-10T05:54:00.960Z,98042.83
2023-03-10T05:56:54.908Z,98039.84
2023-03-10T05:59:57.940Z,98031.20
2023-03-10T06:02:32.796Z,98023.04
2023-03-10T06:05:05.814Z,98017.23
2023-03-10T06:07:38.304Z,98007.55
2023-03-10T06:10:08.582Z,98002.88
2023-03-10T06:12:38.656Z,97998.81
2023-03-10T06:15:09.951Z,98005.09
2023-03-10T06:17:42.466Z,98003.09
2023-03-10T06:20:15.901Z,97994.15
2023-03-10T06:22:49.676Z,97989.70
2023-03-10T06:25:22.334Z,97986.59
2023-03-10T06:27:56.733Z,97987.48
2023-03-10T06:30:26.692Z,97978.71
2023-03-10T06:32:59.528Z,97976.21
2023-03-10T06:35:33.967Z,97971.95
2023-03-10T06:38:03.165Z,97982.98
2023-03-10T06:40:34.726Z,97986.70
2023-03-10T06:43:06.748Z,97975.88
2023-03-10T06:45:36.426Z,97972.98
2023-03-10T06:48:07.915Z,97968.04
2023-03-10T06:50:50.289Z,97969.94
2023-03-10T06:53:24.007Z,97965.98
2023-03-10T06:56:00.859Z,97963.55
2023-03-10T06:58:31.571Z,97956.89
2023-03-10T07:01:01.168Z,97955.81
2023-03-10T07:03:31.353Z,97948.61
2023-03-10T07:06:01.896Z,97943.14
2023-03-10T07:08:34.234Z,97931.80
2023-03-10T07:11:03.648Z,97929.69
2023-03-10T07:13:32.751Z,97932.40
2023-03-10T07:16:02.254Z,97932.23
2023-03-10T07:18:31.829Z,97928.23
2023-03-10T07:21:01.911Z,97926.11
2023-03-10T07:23:31.589Z,97927.27
2023-03-10T07:26:09.452Z,97931.09
2023-03-10T07:29:00.933Z,97924.02
2023-03-10T07:31:46.328Z,97918.80
2023-03-10T07:34:18.374Z,97914.34
2023-03-10T07:36:49.437Z,97913.86
2023-03-10T07:39:21.141Z,97911.80
2023-03-10T07:41:52.589Z,97914.23
2023-03-10T07:44:24.901Z,97914.30
2023-03-10T07:46:54.751Z,97912.02
2023-03-10T07:49:25.993Z,97905.46
2023-03-10T07:53:09.597Z,97904.28
2023-03-10T07:55:40.318Z,97905.21
2023-03-10T07:58:13.283Z,97896.07
2023-03-10T08:00:45.217Z,97890.24
2023-03-10T08:03:15.473Z,97892.14
2023-03-10T08:05:48.591Z,97893.51
2023-03-10T08:08:19.221Z,97883.23
2023-03-10T08:10:52.468Z,97885.19
2023-03-10T08:13:25.639Z,97873.58
2023-03-10T08:15:56.181Z,97865.73
2023-03-10T08:18:28.663Z,97848.71
2023-03-10T08:21:03.740Z,97842.66
2023-03-10T08:23:58.618Z,97856.29
2023-03-10T08:26:30.009Z,97847.81
2023-03-10T08:29:00.926Z,97861.33
2023-03-10T08:31:30.827Z,97869.11
2023-03-10T08:34:02.493Z,97862.94
2023-03-10T08:36:33.796Z,97851.90
2023-03-10T08:39:06.256Z,97849.30
2023-03-10T08:41:42.961Z,97849.16
2023-03-10T08:44:16.248Z,97836.83
2023-03-10T08:46:48.862Z,97832.36
2023-03-10T08:49:23.279Z,97833.42
2023-03-10T08:51:56.350Z,97842.27
2023-03-10T08:54:27.818Z,97831.02
2023-03-10T08:56:57.860Z,97825.34
2023-03-10T08:59:29.138Z,97822.90
2023-03-10T09:01:59.369Z,97817.20
2023-03-10T09:04:31.376Z,97811.38
2023-03-10T09:07:02.307Z,97798.34
2023-03-10T09:09:34.413Z,97797.92
2023-03-10T09:12:07.436Z,97805.44
2023-03-10T09:14:38.613Z,97809.70
2023-03-10T09:17:08.626Z,97795.32
2023-03-10T09:19:39.508Z,97792.80
2023-03-10T09:22:11.092Z,97790.22
2023-03-10T09:24:40.566Z,97777.06
2023-03-10T09:27:12.188Z,97780.10
2023-03-10T09:29:43.619Z,97779.13
2023-03-10T09:32:15.471Z,97782.41
2023-03-10T09:34:51.387Z,97782.14
2023-03-10T09:37:23.309Z,97777.13
2023-03-10T09:39:54.052Z,97779.79
2023-03-10T09:42:38.384Z,97779.57
2023-03-10T09:45:25.356Z,97774.91
2023-03-10T09:48:10.542Z,97768.73
2023-03-10T09:50:52.724Z,97761.89
2023-03-10T09:53:54.063Z,97758.71
2023-03-10T09:56:32.181Z,97762.06
2023-03-10T09:59:13.557Z,97763.49
2023-03-10T10:01:47.390Z,97763.37
2023-03-10T10:04:25.552Z,97768.24
2023-03-10T10:06:58.048Z,97767.52
2023-03-10T10:09:45.433Z,97766.40
2023-03-10T10:12:21.391Z,97760.17
2023-03-10T10:14:57.686Z,97751.41
2023-03-10T10:17:32.485Z,97743.73
2023-03-10T10:20:15.886Z,97743.94
2023-03-10T10:22:48.234Z,97741.81
2023-03-10T10:25:22.085Z,97736.73
2023-03-10T10:27:55.385Z,97734.36
2023-03-10T10:30:39.230Z,97733.99
2023-03-10T10:33:11.716Z,97723.90
2023-03-10T10:35:44.233Z,97722.08
2023-03-10T10:38:16.961Z,97712.56
2023-03-10T10:40:59.223Z,97706.23
2023-03-10T10:43:30.197Z,97691.42
2023-03-10T10:46:07.552Z,97695.79
2023-03-10T10:48:43.458Z,97697.79
2023-03-10T10:51:39.615Z,97696.11
2023-03-10T10:54:28.845Z,97704.91
2023-03-10T10:57:03.717Z,97687.22
2023-03-10T10:59:34.820Z,97675.58
2023-03-10T11:02:25.202Z,97674.09
2023-03-10T11:05:07.327Z,97672.79
2023-03-10T11:07:36.320Z,97671.87
2023-03-10T11:10:27.044Z,97664.01
2023-03-10T11:13:16.304Z,97665.73
2023-03-10T11:16:07.469Z,97665.11
2023-03-10T11:18:52.713Z,97667.01
2023-03-10T11:21:36.932Z,97664.50
2023-03-10T11:24:26.739Z,97666.14
2023-03-10T11:27:06.909Z,97658.81
2023-03-10T11:29:55.008Z,97661.70
2023-03-10T11:32:56.402Z,97659.48
2023-03-10T11:35:48.471Z,97657.23
2023-03-10T11:38:37.543Z,97652.27
2023-03-10T11:41:14.214Z,97648.73
2023-03-10T11:43:56.017Z,97648.33
2023-03-10T11:46:53.799Z,97645.61
2023-03-10T11:49:27.811Z,97637.43
2023-03-10T11:52:14.992Z,97638.05
2023-03-10T11:54:54.625Z,97624.17
2023-03-10T11:57:41.260Z,97634.25
2023-03-10T12:00:26.035Z,97645.45
2023-03-10T12:03:06.309Z,97647.96
2023-03-10T12:05:54.953Z,97644.92
2023-03-10T12:08:32.873Z,97643.55
2023-03-10T12:11:07.301Z,97637.51
2023-03-10T12:13:50.193Z,97631.31
2023-03-10T12:16:33.359Z,97624.89
2023-03-10T12:19:06.752Z,97623.41
2023-03-10T12:21:36.733Z,97619.40
2023-03-10T12:24:27.067Z,97616.17
2023-03-10T12:27:02.588Z,97614.61
2023-03-10T12:29:34.747Z,97624.84
2023-03-10T12:32:04.933Z,97631.30
2023-03-10T12:34:35.709Z,97635.34
2023-03-10T12:37:10.940Z,97631.61
2023-03-10T12:39:44.320Z,97636.41
2023-03-10T12:42:31.512Z,97628.84
2023-03-10T12:45:18.688Z,97628.27
2023-03-10T12:47:56.688Z,97619.16
2023-03-10T12:50:32.459Z,97616.73
2023-03-10T12:53:31.163Z,97617.94
2023-03-10T12:56:21.589Z,97614.17
2023-03-10T12:59:05.606Z,97622.56
2023-03-10T13:01:55.160Z,97616.80
2023-03-10T13:04:28.222Z,97621.89
2023-03-10T13:07:04.473Z,97623.77
2023-03-10T13:09:41.601Z,97620.09
2023-03-10T13:12:23.000Z,97617.48
2023-03-10T13:14:57.154Z,97620.09
2023-03-10T13:17:29.560Z,97616.76
2023-03-10T13:20:15.536Z,97619.75
2023-03-10T13:22:59.442Z,97620.11
2023-03-10T13:25:29.620Z,97626.95
2023-03-10T13:28:12.342Z,97624.44
2023-03-10T13:30:42.171Z,97613.71
2023-03-10T13:33:21.917Z,97612.27
2023-03-10T13:35:54.212Z,97619.86
2023-03-10T13:38:24.918Z,97621.23
2023-03-10T13:41:02.684Z,97621.34
2023-03-10T13:43:38.644Z,97625.16
2023-03-10T13:46:18.391Z,97624.95
2023-03-10T13:48:49.336Z,97615.77
2023-03-10T13:51:35.656Z,97620.27
2023-03-10T13:54:44.013Z,97612.21
2023-03-10T13:57:36.043Z,97619.44
2023-03-10T14:00:11.473Z,97617.81
2023-03-10T14:02:45.403Z,97621.73
2023-03-10T14:05:49.928Z,97614.34
2023-03-10T14:08:26.594Z,97610.75
2023-03-10T14:11:24.149Z,97610.21
2023-03-10T14:13:55.656Z,97609.37
2023-03-10T14:16:58.594Z,97610.81
2023-03-10T14:19:49.749Z,97608.25
2023-03-10T14:22:41.048Z,97607.42
2023-03-10T14:25:22.049Z,97603.83
2023-03-10T14:28:04.759Z,97601.54
2023-03-10T14:30:34.743Z,97599.45
2023-03-10T14:33:12.459Z,97603.79
2023-03-10T14:35:44.951Z,97606.88
2023-03-10T14:38:14.409Z,97609.50
2023-03-10T14:40:51.038Z,97613.42
2023-03-10T14:43:28.158Z,97616.52
2023-03-10T14:46:00.776Z,97616.31
2023-03-10T14:48:35.774Z,97615.66
2023-03-10T14:51:09.031Z,97617.82
2023-03-10T14:53:42.733Z,97620.69
2023-03-10T14:56:20.564Z,97616.61
2023-03-10T14:58:56.386Z,97617.41
2023-03-10T15:01:27.187Z,97623.13
2023-03-10T15:03:58.395Z,97622.65
2023-03-10T15:06:28.908Z,97630.52
2023-03-10T15:09:01.948Z,97624.90
2023-03-10T15:11:37.324Z,97620.23
2023-03-10T15:14:18.739Z,97624.16
2023-03-10T15:16:50.213Z,97624.17
2023-03-10T15:19:26.903Z,97620.27
2023-03-10T15:21:56.497Z,97618.82
2023-03-10T15:24:26.849Z,97615.02
2023-03-10T15:26:58.481Z,97620.16
2023-03-10T15:29:31.835Z,97623.67
2023-03-10T15:32:02.797Z,97621.79
2023-03-10T15:34:35.401Z,97624.35
2023-03-10T15:37:08.945Z,97618.59
2023-03-10T15:39:40.264Z,97618.08
2023-03-10T15:42:12.979Z,97621.81
2023-03-10T15:44:42.919Z,97621.77
2023-03-10T15:47:14.605Z,97620.60
2023-03-10T15:49:45.493Z,97615.83
2023-03-10T15:52:20.782Z,97623.06
2023-03-10T15:54:52.160Z,97620.17
2023-03-10T15:57:21.716Z,97616.89
2023-03-10T15:59:52.316Z,97621.17
2023-03-10T16:02:23.664Z,97618.98
2023-03-10T16:04:52.896Z,97617.16
2023-03-10T16:07:22.935Z,97617.36
2023-03-10T16:09:58.840Z,97619.55
2023-03-10T16:12:29.599Z,97612.79
2023-03-10T16:15:03.083Z,97608.56
2023-03-10T16:17:34.872Z,97603.35
2023-03-10T16:20:10.528Z,97605.84
2023-03-10T16:22:43.272Z,97611.54
2023-03-10T16:25:15.864Z,97601.60
2023-03-10T16:27:49.239Z,97602.26
2023-03-10T16:30:19.778Z,97607.45
2023-03-10T16:32:53.000Z,97616.21
2023-03-10T16:35:29.885Z,97610.90
2023-03-10T16:38:05.347Z,97607.90
2023-03-10T16:40:38.364Z,97617.75
2023-03-10T16:43:10.835Z,97609.96
2023-03-10T16:45:41.404Z,97606.75
2023-03-10T16:48:13.409Z,97601.90
2023-03-10T16:50:48.731Z,97601.98
2023-03-10T16:53:22.526Z,97608.02
2023-03-10T16:56:03.567Z,97610.74
2023-03-10T16:58:37.251Z,97612.59
2023-03-10T17:01:11.867Z,97612.01
2023-03-10T17:03:45.121Z,97618.21
2023-03-10T17:06:21.022Z,97618.44
2023-03-10T17:08:58.265Z,97617.86
2023-03-10T17:11:32.682Z,97615.88
2023-03-10T17:14:08.924Z,97620.64
2023-03-10T17:16:43.747Z,97620.66
2023-03-10T17:19:20.804Z,97622.91
2023-03-10T17:21:54.446Z,97622.23
2023-03-10T17:24:28.188Z,97621.59
2023-03-10T17:27:03.295Z,97618.83
2023-03-10T17:29:35.734Z,97613.94
2023-03-10T17:32:07.005Z,97609.18
2023-03-10T17:34:37.302Z,97599.91
2023-03-10T17:37:11.177Z,97599.17
2023-03-10T17:39:41.853Z,97597.66
2023-03-10T17:42:14.809Z,97594.11
2023-03-10T17:44:49.561Z,97592.11
2023-03-10T17:47:24.171Z,97587.87
2023-03-10T17:50:00.476Z,97585.52
2023-03-10T17:52:34.899Z,97582.06
2023-03-10T17:55:06.124Z,97583.70
2023-03-10T17:57:39.076Z,97581.20
2023-03-10T18:00:12.360Z,97576.95
2023-03-10T18:02:45.511Z,97570.83
2023-03-10T18:05:18.892Z,97569.06
2023-03-10T18:07:55.436Z,97564.71
2023-03-10T18:10:26.926Z,97563.85
2023-03-10T18:12:59.025Z,97558.20
2023-03-10T18:15:29.399Z,97568.60
2023-03-10T18:18:03.604Z,97588.33
2023-03-10T18:20:39.003Z,97586.98
2023-03-10T18:23:13.632Z,97580.60
2023-03-10T18:25:47.072Z,97580.06
2023-03-10T18:28:19.612Z,97586.64
2023-03-10T18:30:54.180Z,97585.93
2023-03-10T18:33:27.686Z,97575.60
2023-03-10T18:36:04.204Z,97571.11
2023-03-10T18:38:34.946Z,97583.30
2023-03-10T18:41:07.827Z,97584.37
2023-03-10T18:43:40.291Z,97582.21
2023-03-10T18:46:12.610Z,97584.08
2023-03-10T18:48:44.882Z,97579.23
2023-03-10T18:51:17.697Z,97580.56
2023-03-10T18:53:49.198Z,97574.71
2023-03-10T18:56:26.442Z,97574.86
2023-03-10T18:58:58.963Z,97571.42
2023-03-10T19:01:29.461Z,97569.63
2023-03-10T19:04:03.533Z,97569.58
2023-03-10T19:06:35.608Z,97562.49
2023-03-10T19:09:09.049Z,97561.02
2023-03-10T19:11:42.750Z,97559.81
2023-03-10T19:14:18.964Z,97558.07
2023-03-10T19:16:55.626Z,97548.27
2023-03-10T19:19:30.286Z,97546.33
2023-03-10T19:22:05.198Z,97540.40
2023-03-10T19:24:36.915Z,97539.58
2023-03-10T19:27:11.264Z,97535.52
2023-03-10T19:29:42.562Z,97539.61
2023-03-10T19:32:15.313Z,97530.52
2023-03-10T19:34:49.155Z,97533.98
2023-03-10T19:37:23.901Z,97531.08
2023-03-10T19:39:59.165Z,97530.38
2023-03-10T19:42:36.050Z,97534.04
2023-03-10T19:45:08.612Z,97530.77
2023-03-10T19:47:39.957Z,97528.27
2023-03-10T19:50:14.373Z,97524.98
2023-03-10T19:52:48.564Z,97526.66
2023-03-10T19:55:24.168Z,97520.30
2023-03-10T19:57:59.566Z,97522.15
2023-03-10T20:00:37.761Z,97510.42
2023-03-10T20:03:12.303Z,97506.30
2023-03-10T20:05:44.537Z,97501.27
2023-03-10T20:08:19.330Z,97498.73
2023-03-10T20:10:55.588Z,97497.02
2023-03-10T20:13:31.326Z,97494.73
2023-03-10T20:16:03.269Z,97493.57
2023-03-10T20:18:39.729Z,97492.04
2023-03-10T20:21:12.639Z,97496.98
2023-03-10T20:23:48.346Z,97493.38
2023-03-10T20:26:20.472Z,97492.84
2023-03-10T20:28:55.067Z,97494.77
2023-03-10T20:31:29.296Z,97495.84
2023-03-10T20:34:01.882Z,97496.37
2023-03-10T20:36:34.267Z,97488.68
2023-03-10T20:39:12.342Z,97483.94
2023-03-10T20:41:45.113Z,97490.48
2023-03-10T20:44:22.284Z,97487.19
2023-03-10T20:46:56.653Z,97476.38
2023-03-10T20:49:33.415Z,97473.69
2023-03-10T20:52:05.665Z,97480.99
2023-03-10T20:54:40.512Z,97479.57
2023-03-10T20:57:17.498Z,97473.33
2023-03-10T20:59:50.007Z,97471.79
2023-03-10T21:02:27.447Z,97474.73
2023-03-10T21:05:01.480Z,97464.39
2023-03-10T21:07:32.389Z,97465.21
2023-03-10T21:10:05.977Z,97467.33
2023-03-10T21:12:36.881Z,97465.77
2023-03-10T21:15:09.793Z,97459.89
2023-03-10T21:17:41.395Z,97452.50
2023-03-10T21:20:15.911Z,97453.25
2023-03-10T21:22:47.579Z,97450.92
2023-03-10T21:25:21.228Z,97443.35
2023-03-10T21:27:59.256Z,97435.42
2023-03-10T21:30:33.912Z,97433.41
2023-03-10T21:33:04.331Z,97432.87
2023-03-10T21:35:38.872Z,97423.31
2023-03-10T21:38:12.020Z,97416.10
2023-03-10T21:40:42.421Z,97419.02
2023-03-10T21:43:14.420Z,97406.83
2023-03-10T21:45:46.988Z,97404.08
2023-03-10T21:48:16.953Z,97403.35
2023-03-10T21:50:47.677Z,97397.85
2023-03-10T21:53:18.998Z,97398.85
2023-03-10T21:55:50.185Z,97389.90
2023-03-10T21:58:23.750Z,97386.27
2023-03-10T22:00:56.347Z,97382.06
2023-03-10T22:03:25.636Z,97376.34
2023-03-10T22:05:57.365Z,97373.55
2023-03-10T22:08:30.422Z,97378.39
2023-03-10T22:11:00.655Z,97374.11
2023-03-10T22:13:33.761Z,97373.27
2023-03-10T22:16:05.316Z,97368.73
2023-03-10T22:18:39.015Z,97362.27
2023-03-10T22:21:09.273Z,97356.04
2023-03-10T22:23:45.175Z,97356.18
2023-03-10T22:26:17.538Z,97352.41
2023-03-10T22:28:48.442Z,97356.48
2023-03-10T22:31:19.598Z,97350.92
2023-03-10T22:34:21.977Z,97344.10
2023-03-10T22:36:44.475Z,97343.52
2023-03-10T22:39:18.088Z,97337.14
2023-03-10T22:41:51.193Z,97335.33
2023-03-10T22:44:23.359Z,97335.66
2023-03-10T22:46:57.057Z,97329.26
2023-03-10T22:49:28.731Z,97323.95
2023-03-10T22:52:09.906Z,97316.30
2023-03-10T22:55:06.821Z,97316.20
2023-03-10T22:57:54.863Z,97319.53
2023-03-10T23:00:41.343Z,97317.09
2023-03-10T23:03:41.832Z,97315.05
2023-03-10T23:06:23.627Z,97308.40
2023-03-10T23:08:57.328Z,97315.64
2023-03-10T23:11:26.867Z,97325.78
2023-03-10T23:14:08.549Z,97313.44
2023-03-10T23:16:38.851Z,97312.40
2023-03-10T23:19:09.013Z,97310.48
2023-03-10T23:21:42.491Z,97310.98
2023-03-10T23:24:14.323Z,97311.96
2023-03-10T23:26:44.592Z,97318.14
2023-03-10T23:29:17.798Z,97312.35
2023-03-10T23:32:23.743Z,97316.14
2023-03-10T23:35:09.217Z,97304.09
2023-03-10T23:37:39.633Z,97308.11
2023-03-10T23:40:14.650Z,97303.59
2023-03-10T23:42:45.382Z,97309.66
2023-03-10T23:45:20.529Z,97305.56
2023-03-10T23:47:52.230Z,97307.30
2023-03-10T23:50:30.051Z,97307.21
2023-03-10T23:53:00.850Z,97308.48
2023-03-10T23:55:36.163Z,97296.03
2023-03-10T23:58:06.769Z,97293.31
